Terminal Aerodrome Forecast
Issued by NWS

Home | Current Version | Previous Version | Text Only | Print | Product List | Glossary Off
Versions: 1 2 3 4 5 6 7 8 9 10 11 12 13 14 15 16 17

000
FTUS42 KTBW 020500
TAFPIE
TAF
KPIE 020535Z 0206/0306 VRB04KT P6SM FEW030 SCT250
     FM021600 08003KT P6SM SCT035 BKN250
     FM021800 05006KT P6SM VCTS SCT050CB BKN250
     FM022100 32006KT P6SM VCTS BKN045CB
     FM030200 VRB04KT P6SM FEW050 SCT250=

USA.gov is the U.S. government's official web portal to all federal, state and local government web resources and services.